createdAt,value
2023-03-02T00:01:53.077Z,99.78
2023-03-02T00:04:24.664Z,99.65
2023-03-02T00:06:54.836Z,99.05
2023-03-02T00:09:23.263Z,99.14
2023-03-02T00:11:53.056Z,99.40
2023-03-02T00:14:21.119Z,99.93
2023-03-02T00:16:51.024Z,99.72
2023-03-02T00:19:19.223Z,99.91
2023-03-02T00:21:49.265Z,99.68
2023-03-02T00:24:17.598Z,98.88
2023-03-02T00:26:45.996Z,98.53
2023-03-02T00:29:14.152Z,99.21
2023-03-02T00:31:42.471Z,100.00
2023-03-02T00:34:12.668Z,100.00
2023-03-02T00:36:41.132Z,100.00
2023-03-02T00:39:09.348Z,100.00
2023-03-02T00:41:37.775Z,100.00
2023-03-02T00:44:06.051Z,100.00
2023-03-02T00:46:34.768Z,100.00
2023-03-02T00:49:03.674Z,100.00
2023-03-02T00:51:33.234Z,100.00
2023-03-02T00:54:02.987Z,100.00
2023-03-02T00:56:31.709Z,100.00
2023-03-02T00:59:00.336Z,100.00
2023-03-02T01:01:28.554Z,100.00
2023-03-02T01:03:56.965Z,100.00
2023-03-02T01:06:25.485Z,100.00
2023-03-02T01:08:55.546Z,100.00
2023-03-02T01:11:24.452Z,100.00
2023-03-02T01:13:52.715Z,100.00
2023-03-02T01:16:22.210Z,100.00
2023-03-02T01:18:50.656Z,100.00
2023-03-02T01:21:20.619Z,100.00
2023-03-02T01:23:49.777Z,100.00
2023-03-02T01:26:19.500Z,100.00
2023-03-02T01:28:49.459Z,100.00
2023-03-02T01:31:18.256Z,100.00
2023-03-02T01:33:46.312Z,100.00
2023-03-02T01:36:14.391Z,100.00
2023-03-02T01:38:42.552Z,100.00
2023-03-02T01:41:11.312Z,100.00
2023-03-02T01:43:41.231Z,100.00
2023-03-02T01:46:14.898Z,100.00
2023-03-02T01:48:47.367Z,100.00
2023-03-02T01:51:19.789Z,100.00
2023-03-02T01:53:50.130Z,100.00
2023-03-02T01:56:25.274Z,100.00
2023-03-02T01:59:02.152Z,100.00
2023-03-02T02:01:31.655Z,100.00
2023-03-02T02:04:01.840Z,100.00
2023-03-02T02:06:34.853Z,100.00
2023-03-02T02:09:05.300Z,100.00
2023-03-02T02:11:33.655Z,100.00
2023-03-02T02:14:04.785Z,100.00
2023-03-02T02:16:35.371Z,100.00
2023-03-02T02:19:05.484Z,100.00
2023-03-02T02:21:33.624Z,100.00
2023-03-02T02:24:10.716Z,100.00
2023-03-02T02:26:45.587Z,100.00
2023-03-02T02:29:19.162Z,100.00
2023-03-02T02:31:50.383Z,100.00
2023-03-02T02:34:23.712Z,100.00
2023-03-02T02:36:56.662Z,100.00
2023-03-02T02:39:29.838Z,100.00
2023-03-02T02:42:03.083Z,100.00
2023-03-02T02:44:32.351Z,100.00
2023-03-02T02:47:00.504Z,100.00
2023-03-02T02:49:33.715Z,100.00
2023-03-02T02:52:02.440Z,100.00
2023-03-02T02:54:33.058Z,100.00
2023-03-02T02:57:07.770Z,100.00
2023-03-02T02:59:40.176Z,100.00
2023-03-02T03:02:08.572Z,100.00
2023-03-02T03:04:36.826Z,100.00
2023-03-02T03:07:07.016Z,100.00
2023-03-02T03:09:35.729Z,100.00
2023-03-02T03:12:12.582Z,100.00
2023-03-02T03:14:42.664Z,100.00
2023-03-02T03:17:13.737Z,100.00
2023-03-02T03:19:43.312Z,100.00
2023-03-02T03:22:14.123Z,100.00
2023-03-02T03:24:43.566Z,100.00
2023-03-02T03:27:15.320Z,100.00
2023-03-02T03:29:45.333Z,100.00
2023-03-02T03:32:13.836Z,100.00
2023-03-02T03:34:42.076Z,100.00
2023-03-02T03:37:10.995Z,100.00
2023-03-02T03:39:40.116Z,100.00
2023-03-02T03:42:08.545Z,100.00
2023-03-02T03:44:38.279Z,100.00
2023-03-02T03:47:06.802Z,100.00
2023-03-02T03:49:35.067Z,100.00
2023-03-02T03:52:05.617Z,100.00
2023-03-02T03:54:33.822Z,100.00
2023-03-02T03:57:01.916Z,100.00
2023-03-02T03:59:31.859Z,100.00
2023-03-02T04:02:03.205Z,100.00
2023-03-02T04:04:34.253Z,100.00
2023-03-02T04:07:02.389Z,100.00
2023-03-02T04:09:32.395Z,100.00
2023-03-02T04:12:00.542Z,100.00
2023-03-02T04:14:28.693Z,100.00
2023-03-02T04:16:58.749Z,100.00
2023-03-02T04:19:28.633Z,100.00
2023-03-02T04:21:58.618Z,100.00
2023-03-02T04:24:26.759Z,100.00
2023-03-02T04:26:55.121Z,100.00
2023-03-02T04:29:23.865Z,100.00
2023-03-02T04:31:52.114Z,100.00
2023-03-02T04:34:20.538Z,100.00
2023-03-02T04:36:51.097Z,100.00
2023-03-02T04:39:20.568Z,100.00
2023-03-02T04:41:49.885Z,100.00
2023-03-02T04:44:19.628Z,100.00
2023-03-02T04:46:51.306Z,100.00
2023-03-02T04:49:20.821Z,100.00
2023-03-02T04:51:51.398Z,100.00
2023-03-02T04:54:25.784Z,100.00
2023-03-02T04:56:54.522Z,100.00
2023-03-02T04:59:26.355Z,100.00
2023-03-02T05:01:55.119Z,100.00
2023-03-02T05:04:24.255Z,100.00
2023-03-02T05:06:53.973Z,100.00
2023-03-02T05:09:27.510Z,100.00
2023-03-02T05:11:56.253Z,100.00
2023-03-02T05:14:25.582Z,100.00
2023-03-02T05:16:54.611Z,100.00
2023-03-02T05:19:23.752Z,100.00
2023-03-02T05:21:53.647Z,100.00
2023-03-02T05:24:22.058Z,100.00
2023-03-02T05:26:50.306Z,100.00
2023-03-02T05:29:18.733Z,100.00
2023-03-02T05:31:48.672Z,100.00
2023-03-02T05:34:19.536Z,100.00
2023-03-02T05:36:48.617Z,100.00
2023-03-02T05:39:18.439Z,100.00
2023-03-02T05:41:46.627Z,100.00
2023-03-02T05:44:15.894Z,100.00
2023-03-02T05:46:44.292Z,100.00
2023-03-02T05:49:12.458Z,100.00
2023-03-02T05:51:40.871Z,100.00
2023-03-02T05:54:09.235Z,100.00
2023-03-02T05:56:41.121Z,100.00
2023-03-02T05:59:10.118Z,100.00
2023-03-02T06:01:39.302Z,100.00
2023-03-02T06:04:07.696Z,100.00
2023-03-02T06:06:36.107Z,100.00
2023-03-02T06:09:04.826Z,100.00
2023-03-02T06:11:33.912Z,100.00
2023-03-02T06:14:03.899Z,100.00
2023-03-02T06:16:34.226Z,100.00
2023-03-02T06:19:02.779Z,100.00
2023-03-02T06:21:31.316Z,100.00
2023-03-02T06:23:59.536Z,100.00
2023-03-02T06:26:28.875Z,100.00
2023-03-02T06:28:57.275Z,100.00
2023-03-02T06:31:27.893Z,100.00
2023-03-02T06:33:57.263Z,100.00
2023-03-02T06:36:25.604Z,100.00
2023-03-02T06:38:55.060Z,100.00
2023-03-02T06:41:23.699Z,100.00
2023-03-02T06:43:52.039Z,100.00
2023-03-02T06:46:20.186Z,100.00
2023-03-02T06:48:49.997Z,100.00
2023-03-02T06:51:18.057Z,100.00
2023-03-02T06:53:46.573Z,100.00
2023-03-02T06:56:14.774Z,100.00
2023-03-02T06:58:42.936Z,100.00
2023-03-02T07:01:11.300Z,100.00
2023-03-02T07:03:41.446Z,100.00
2023-03-02T07:06:12.965Z,100.00
2023-03-02T07:08:41.765Z,100.00
2023-03-02T07:11:12.262Z,100.00
2023-03-02T07:13:41.310Z,100.00
2023-03-02T07:16:11.342Z,100.00
2023-03-02T07:18:40.314Z,100.00
2023-03-02T07:21:10.837Z,100.00
2023-03-02T07:23:38.990Z,100.00
2023-03-02T07:26:09.082Z,100.00
2023-03-02T07:28:39.688Z,100.00
2023-03-02T07:31:08.640Z,99.60
2023-03-02T07:33:37.620Z,97.31
2023-03-02T07:36:07.561Z,96.88
2023-03-02T07:38:38.778Z,95.78
2023-03-02T07:41:11.569Z,94.08
2023-03-02T07:43:39.827Z,92.69
2023-03-02T07:46:08.321Z,92.10
2023-03-02T07:48:37.249Z,92.44
2023-03-02T07:51:07.553Z,92.24
2023-03-02T07:53:37.630Z,91.06
2023-03-02T07:56:10.136Z,89.96
2023-03-02T07:58:38.601Z,88.76
2023-03-02T08:01:07.487Z,88.33
2023-03-02T08:03:36.223Z,88.35
2023-03-02T08:06:07.838Z,88.25
2023-03-02T08:08:38.550Z,87.43
2023-03-02T08:11:07.795Z,87.24
2023-03-02T08:13:39.305Z,84.93
2023-03-02T08:16:09.760Z,84.55
2023-03-02T08:18:39.290Z,83.51
2023-03-02T08:21:13.740Z,82.76
2023-03-02T08:23:43.551Z,82.35
2023-03-02T08:26:14.290Z,81.14
2023-03-02T08:28:44.727Z,80.21
2023-03-02T08:31:13.737Z,80.10
2023-03-02T08:33:42.418Z,79.05
2023-03-02T08:36:14.716Z,78.95
2023-03-02T08:38:44.894Z,78.77
2023-03-02T08:41:15.528Z,78.31
2023-03-02T08:43:43.843Z,76.99
2023-03-02T08:46:13.373Z,76.51
2023-03-02T08:48:41.929Z,76.19
2023-03-02T08:51:11.862Z,75.90
2023-03-02T08:53:43.344Z,75.70
2023-03-02T08:56:21.363Z,75.54
2023-03-02T08:58:50.362Z,74.98
2023-03-02T09:01:21.518Z,72.71
2023-03-02T09:03:51.848Z,71.60
2023-03-02T09:06:20.172Z,70.96
2023-03-02T09:08:48.782Z,70.02
2023-03-02T09:11:17.030Z,70.21
2023-03-02T09:13:50.739Z,68.94
2023-03-02T09:16:20.428Z,67.95
2023-03-02T09:18:49.497Z,67.44
2023-03-02T09:21:18.094Z,66.30
2023-03-02T09:23:46.899Z,65.42
2023-03-02T09:26:15.113Z,65.43
2023-03-02T09:28:43.556Z,63.67
2023-03-02T09:31:14.432Z,62.32
2023-03-02T09:33:43.045Z,62.19
2023-03-02T09:36:16.953Z,61.08
2023-03-02T09:38:45.283Z,60.85
2023-03-02T09:41:33.263Z,60.98
2023-03-02T09:44:13.631Z,58.75
2023-03-02T09:46:48.711Z,58.83
2023-03-02T09:49:28.635Z,58.04
2023-03-02T09:52:08.595Z,57.47
2023-03-02T09:54:38.361Z,57.37
2023-03-02T09:57:22.106Z,56.97
2023-03-02T09:59:57.296Z,56.36
2023-03-02T10:02:32.130Z,55.90
2023-03-02T10:05:05.945Z,55.13
2023-03-02T10:07:37.245Z,55.02
2023-03-02T10:10:19.478Z,54.16
2023-03-02T10:13:00.222Z,53.65
2023-03-02T10:15:36.972Z,53.71
2023-03-02T10:18:20.147Z,53.60
2023-03-02T10:20:55.387Z,53.10
2023-03-02T10:23:32.373Z,52.22
2023-03-02T10:26:13.386Z,51.87
2023-03-02T10:28:47.616Z,51.57
2023-03-02T10:31:25.054Z,50.66
2023-03-02T10:33:54.707Z,49.91
2023-03-02T10:36:26.020Z,49.91
2023-03-02T10:38:56.023Z,50.68
2023-03-02T10:41:28.348Z,50.31
2023-03-02T10:44:02.778Z,49.12
2023-03-02T10:46:41.632Z,48.31
2023-03-02T10:49:26.057Z,47.17
2023-03-02T10:51:59.406Z,47.13
2023-03-02T10:54:29.011Z,46.81
2023-03-02T10:57:00.773Z,46.70
2023-03-02T10:59:44.946Z,45.85
2023-03-02T11:02:23.175Z,45.50
2023-03-02T11:05:20.880Z,45.61
2023-03-02T11:07:54.319Z,45.20
2023-03-02T11:10:28.831Z,44.12
2023-03-02T11:12:58.767Z,43.32
2023-03-02T11:15:29.706Z,41.71
2023-03-02T11:18:15.672Z,42.40
2023-03-02T11:20:50.313Z,41.93
2023-03-02T11:23:28.148Z,41.02
2023-03-02T11:26:00.264Z,40.83
2023-03-02T11:28:39.429Z,40.33
2023-03-02T11:31:15.707Z,41.25
2023-03-02T11:33:53.216Z,40.86
2023-03-02T11:36:37.611Z,40.17
2023-03-02T11:39:10.413Z,39.31
2023-03-02T11:41:39.140Z,40.15
2023-03-02T11:44:16.489Z,40.48
2023-03-02T11:46:48.816Z,40.85
2023-03-02T11:49:22.214Z,40.77
2023-03-02T11:51:58.956Z,41.86
2023-03-02T11:54:39.758Z,41.45
2023-03-02T11:57:17.731Z,39.96
2023-03-02T11:59:46.511Z,39.50
2023-03-02T12:02:17.118Z,39.32
2023-03-02T12:04:45.396Z,39.47
2023-03-02T12:07:25.242Z,39.37
2023-03-02T12:10:02.633Z,38.84
2023-03-02T12:12:43.132Z,38.48
2023-03-02T12:15:45.496Z,37.84
2023-03-02T12:18:28.466Z,38.08
2023-03-02T12:21:02.429Z,37.55
2023-03-02T12:23:33.888Z,36.78
2023-03-02T12:26:09.762Z,37.32
2023-03-02T12:28:40.255Z,37.82
2023-03-02T12:31:14.208Z,37.38
2023-03-02T12:33:48.926Z,37.28
2023-03-02T12:36:25.192Z,36.91
2023-03-02T12:39:23.223Z,36.61
2023-03-02T12:42:17.754Z,36.34
2023-03-02T12:44:53.085Z,36.08
2023-03-02T12:47:27.950Z,35.78
2023-03-02T12:49:59.217Z,36.79
2023-03-02T12:52:32.911Z,36.83
2023-03-02T12:55:03.951Z,36.50
2023-03-02T12:57:43.107Z,35.64
2023-03-02T13:00:17.947Z,35.88
2023-03-02T13:02:49.129Z,36.02
2023-03-02T13:05:21.339Z,36.30
2023-03-02T13:08:02.059Z,36.09
2023-03-02T13:10:41.500Z,36.12
2023-03-02T13:13:20.425Z,36.68
2023-03-02T13:15:50.757Z,37.20
2023-03-02T13:18:19.887Z,37.11
2023-03-02T13:20:49.732Z,36.78
2023-03-02T13:23:19.337Z,36.89
2023-03-02T13:25:52.981Z,35.91
2023-03-02T13:28:29.407Z,35.51
2023-03-02T13:30:59.865Z,36.03
2023-03-02T13:33:31.174Z,35.60
2023-03-02T13:36:00.055Z,34.89
2023-03-02T13:38:32.807Z,34.20
2023-03-02T13:41:02.518Z,33.13
2023-03-02T13:43:41.071Z,33.01
2023-03-02T13:46:28.740Z,33.11
2023-03-02T13:49:09.169Z,33.11
2023-03-02T13:51:40.950Z,32.93
2023-03-02T13:54:21.828Z,32.01
2023-03-02T13:56:51.304Z,31.82
2023-03-02T13:59:23.052Z,31.26
2023-03-02T14:01:51.171Z,30.76
2023-03-02T14:04:21.837Z,30.92
2023-03-02T14:06:50.934Z,30.34
2023-03-02T14:09:19.706Z,30.13
2023-03-02T14:11:51.087Z,29.91
2023-03-02T14:14:23.447Z,29.43
2023-03-02T14:16:53.633Z,29.50
2023-03-02T14:19:31.738Z,29.07
2023-03-02T14:21:59.971Z,28.48
2023-03-02T14:24:28.139Z,27.80
2023-03-02T14:26:59.012Z,27.14
2023-03-02T14:29:31.411Z,28.28
2023-03-02T14:32:03.437Z,28.46
2023-03-02T14:34:35.979Z,28.37
2023-03-02T14:37:07.636Z,28.01
2023-03-02T14:39:40.240Z,27.98
2023-03-02T14:42:13.750Z,27.54
2023-03-02T14:44:47.383Z,27.04
2023-03-02T14:47:19.861Z,27.28
2023-03-02T14:49:51.273Z,27.59
2023-03-02T14:52:26.637Z,26.97
2023-03-02T14:54:58.085Z,26.32
2023-03-02T14:57:28.588Z,25.82
2023-03-02T15:00:00.137Z,26.70
2023-03-02T15:02:28.908Z,26.30
2023-03-02T15:04:58.655Z,25.79
2023-03-02T15:07:29.276Z,25.29
2023-03-02T15:09:57.942Z,25.10
2023-03-02T15:12:26.708Z,24.96
2023-03-02T15:14:55.384Z,24.75
2023-03-02T15:17:25.751Z,23.88
2023-03-02T15:19:55.812Z,23.90
2023-03-02T15:22:24.088Z,24.17
2023-03-02T15:24:52.897Z,23.23
2023-03-02T15:27:23.904Z,23.48
2023-03-02T15:29:54.519Z,23.29
2023-03-02T15:32:25.876Z,22.89
2023-03-02T15:34:54.228Z,23.20
2023-03-02T15:37:22.518Z,23.82
2023-03-02T15:39:55.807Z,23.00
2023-03-02T15:42:24.582Z,22.84
2023-03-02T15:44:53.834Z,22.70
2023-03-02T15:47:25.173Z,22.36
2023-03-02T15:49:53.851Z,22.08
2023-03-02T15:52:24.086Z,21.94
2023-03-02T15:54:52.521Z,22.28
2023-03-02T15:57:20.966Z,22.54
2023-03-02T15:59:49.480Z,22.41
2023-03-02T16:02:18.542Z,22.12
2023-03-02T16:04:51.432Z,22.35
2023-03-02T16:07:20.678Z,22.50
2023-03-02T16:09:50.323Z,23.04
2023-03-02T16:12:21.080Z,23.01
2023-03-02T16:14:49.980Z,22.91
2023-03-02T16:17:20.087Z,22.69
2023-03-02T16:19:52.736Z,23.07
2023-03-02T16:22:22.007Z,23.36
2023-03-02T16:24:50.998Z,24.49
2023-03-02T16:27:19.696Z,24.18
2023-03-02T16:29:48.151Z,24.36
2023-03-02T16:32:16.496Z,24.79
2023-03-02T16:34:44.970Z,24.79
2023-03-02T16:37:15.031Z,25.14
2023-03-02T16:39:43.525Z,24.93
2023-03-02T16:42:12.001Z,25.14
2023-03-02T16:44:40.673Z,25.46
2023-03-02T16:47:08.979Z,25.30
2023-03-02T16:49:37.130Z,25.81
2023-03-02T16:52:06.175Z,26.82
2023-03-02T16:54:35.771Z,27.72
2023-03-02T16:57:04.444Z,28.55
2023-03-02T16:59:32.821Z,29.83
2023-03-02T17:02:02.340Z,29.75
2023-03-02T17:04:30.700Z,30.16
2023-03-02T17:07:00.753Z,30.65
2023-03-02T17:09:29.636Z,30.98
2023-03-02T17:11:59.947Z,31.92
2023-03-02T17:14:28.289Z,31.92
2023-03-02T17:16:58.452Z,32.71
2023-03-02T17:19:29.767Z,32.38
2023-03-02T17:21:59.445Z,33.06
2023-03-02T17:24:28.807Z,33.01
2023-03-02T17:26:58.041Z,32.93
2023-03-02T17:29:31.112Z,32.84
2023-03-02T17:32:01.170Z,33.53
2023-03-02T17:34:31.470Z,33.63
2023-03-02T17:37:00.842Z,33.98
2023-03-02T17:39:31.650Z,34.50
2023-03-02T17:42:00.105Z,34.26
2023-03-02T17:44:33.180Z,34.90
2023-03-02T17:47:05.504Z,35.19
2023-03-02T17:49:35.491Z,35.40
2023-03-02T17:52:03.923Z,35.57
2023-03-02T17:54:32.104Z,35.76
2023-03-02T17:57:00.628Z,35.49
2023-03-02T17:59:30.325Z,35.28
2023-03-02T18:01:59.027Z,35.69
2023-03-02T18:04:27.630Z,35.42
2023-03-02T18:06:56.360Z,35.31
2023-03-02T18:09:24.663Z,35.24
2023-03-02T18:11:52.867Z,35.32
2023-03-02T18:14:22.078Z,35.66
2023-03-02T18:16:52.160Z,35.43
2023-03-02T18:19:20.975Z,35.94
2023-03-02T18:21:49.417Z,36.64
2023-03-02T18:24:17.672Z,37.13
2023-03-02T18:26:46.065Z,36.60
2023-03-02T18:29:14.243Z,37.12
2023-03-02T18:31:42.903Z,36.67
2023-03-02T18:34:12.614Z,36.69
2023-03-02T18:36:42.205Z,36.92
2023-03-02T18:39:14.371Z,37.09
2023-03-02T18:41:43.212Z,37.89
2023-03-02T18:44:11.732Z,37.70
2023-03-02T18:46:39.916Z,38.16
2023-03-02T18:49:08.387Z,38.44
2023-03-02T18:51:38.791Z,39.18
2023-03-02T18:54:07.651Z,39.22
2023-03-02T18:56:39.106Z,39.37
2023-03-02T18:59:08.898Z,39.40
2023-03-02T19:01:37.406Z,39.53
2023-03-02T19:04:07.397Z,39.99
2023-03-02T19:06:38.339Z,41.00
2023-03-02T19:09:06.723Z,41.15
2023-03-02T19:11:35.265Z,41.88
2023-03-02T19:14:05.791Z,42.13
2023-03-02T19:16:34.046Z,42.47
2023-03-02T19:19:03.592Z,42.78
2023-03-02T19:21:33.132Z,43.55
2023-03-02T19:24:02.770Z,43.61
2023-03-02T19:26:31.169Z,44.25
2023-03-02T19:28:59.556Z,44.79
2023-03-02T19:31:31.624Z,45.76
2023-03-02T19:34:01.003Z,46.34
2023-03-02T19:36:29.716Z,47.02
2023-03-02T19:38:57.840Z,47.56
2023-03-02T19:41:28.039Z,47.84
2023-03-02T19:43:56.594Z,49.43
2023-03-02T19:46:25.243Z,49.33
2023-03-02T19:48:53.822Z,50.53
2023-03-02T19:51:21.983Z,53.37
2023-03-02T19:53:50.787Z,54.10
2023-03-02T19:56:21.634Z,54.99
2023-03-02T19:58:54.145Z,54.74
2023-03-02T20:01:25.173Z,55.44
2023-03-02T20:03:54.644Z,57.34
2023-03-02T20:06:28.300Z,59.84
2023-03-02T20:08:56.770Z,62.07
2023-03-02T20:11:29.006Z,64.29
2023-03-02T20:14:02.462Z,65.24
2023-03-02T20:16:32.697Z,67.00
2023-03-02T20:19:02.289Z,66.11
2023-03-02T20:21:35.162Z,66.55
2023-03-02T20:24:03.545Z,67.60
2023-03-02T20:26:32.349Z,69.81
2023-03-02T20:29:03.853Z,71.20
2023-03-02T20:31:33.657Z,72.50
2023-03-02T20:34:03.170Z,72.48
2023-03-02T20:36:36.190Z,72.44
2023-03-02T20:39:09.919Z,73.51
2023-03-02T20:41:40.324Z,73.66
2023-03-02T20:44:12.821Z,72.84
2023-03-02T20:46:47.928Z,72.32
2023-03-02T20:49:18.189Z,71.54
2023-03-02T20:51:52.995Z,72.58
2023-03-02T20:54:23.521Z,72.59
2023-03-02T20:56:52.789Z,72.29
2023-03-02T20:59:24.618Z,72.22
2023-03-02T21:01:52.931Z,71.45
2023-03-02T21:04:21.750Z,71.25
2023-03-02T21:06:50.628Z,71.43
2023-03-02T21:09:21.573Z,72.01
2023-03-02T21:11:50.312Z,74.67
2023-03-02T21:14:19.046Z,77.67
2023-03-02T21:16:48.913Z,81.01
2023-03-02T21:19:19.899Z,83.63
2023-03-02T21:21:48.838Z,85.88
2023-03-02T21:24:18.484Z,88.20
2023-03-02T21:26:48.998Z,90.43
2023-03-02T21:29:19.522Z,90.65
2023-03-02T21:31:50.298Z,93.25
2023-03-02T21:34:20.195Z,98.71
2023-03-02T21:36:51.003Z,100.00
2023-03-02T21:39:19.360Z,100.00
2023-03-02T21:41:50.812Z,100.00
2023-03-02T21:44:19.568Z,100.00
2023-03-02T21:46:49.860Z,100.00
2023-03-02T21:49:19.548Z,100.00
2023-03-02T21:51:49.881Z,100.00
2023-03-02T21:54:19.645Z,100.00
2023-03-02T21:56:48.102Z,100.00
2023-03-02T21:59:16.551Z,100.00
2023-03-02T22:01:45.597Z,100.00
2023-03-02T22:04:22.747Z,100.00
2023-03-02T22:06:51.120Z,100.00
2023-03-02T22:09:19.445Z,100.00
2023-03-02T22:11:48.894Z,100.00
2023-03-02T22:14:19.124Z,100.00
2023-03-02T22:16:49.387Z,100.00
2023-03-02T22:19:39.661Z,100.00
2023-03-02T22:22:18.496Z,100.00
2023-03-02T22:24:50.758Z,100.00
2023-03-02T22:27:25.408Z,100.00
2023-03-02T22:29:56.805Z,100.00
2023-03-02T22:32:27.146Z,100.00
2023-03-02T22:34:59.058Z,100.00
2023-03-02T22:37:29.419Z,100.00
2023-03-02T22:40:02.341Z,100.00
2023-03-02T22:42:33.081Z,100.00
2023-03-02T22:45:10.195Z,100.00
2023-03-02T22:47:38.554Z,100.00
2023-03-02T22:50:22.282Z,100.00
2023-03-02T22:52:51.021Z,100.00
2023-03-02T22:55:38.437Z,100.00
2023-03-02T22:58:29.066Z,100.00
2023-03-02T23:00:59.215Z,100.00
2023-03-02T23:03:37.123Z,100.00
2023-03-02T23:06:21.308Z,100.00
2023-03-02T23:08:49.463Z,100.00
2023-03-02T23:11:20.750Z,100.00
2023-03-02T23:13:50.291Z,100.00
2023-03-02T23:16:21.765Z,100.00
2023-03-02T23:18:51.319Z,100.00
2023-03-02T23:21:23.579Z,100.00
2023-03-02T23:23:52.237Z,100.00
2023-03-02T23:26:21.026Z,100.00
2023-03-02T23:28:50.711Z,100.00
2023-03-02T23:31:20.159Z,100.00
2023-03-02T23:33:48.676Z,100.00
2023-03-02T23:36:21.319Z,100.00
2023-03-02T23:38:51.750Z,100.00
2023-03-02T23:41:19.924Z,100.00
2023-03-02T23:43:48.187Z,100.00
2023-03-02T23:46:16.558Z,100.00
2023-03-02T23:48:46.359Z,100.00
2023-03-02T23:51:14.647Z,100.00
2023-03-02T23:53:42.845Z,100.00
2023-03-02T23:56:13.130Z,100.00
2023-03-02T23:58:41.405Z,100.00
